Time;durP1;ratioP1;P1;durP2;ratioP2;P2;SDS_P1;SDS_P2;PMS_P1;PMS_P2;Temp;Humidity;BMP_temperature;BMP_pressure;BME280_temperature;BME280_humidity;BME280_pressure;Samples;Min_cycle;Max_cycle;Signal;HPM_P1;HPM_P2
2023/07/18 00:01:44;;;;;;;6.15;4.32;;;;;;;;;;5033729;28;20044;-91
2023/07/18 00:04:12;;;;;;;6.93;4.22;;;;;;;;;;5033742;28;20029;-93
2023/07/18 00:06:40;;;;;;;4.50;4.05;;;;;;;;;;5017375;28;20116;-91
2023/07/18 00:09:06;;;;;;;5.80;4.63;;;;;;;;;;5017313;28;20033;-91
2023/07/18 00:11:31;;;;;;;8.18;5.53;;;;;;;;;;5033567;28;20112;-92
2023/07/18 00:13:59;;;;;;;5.75;5.20;;;;;;;;;;5033721;28;20076;-91
2023/07/18 00:16:25;;;;;;;6.60;5.70;;;;;;;;;;5033740;28;20100;-92
2023/07/18 00:18:50;;;;;;;6.88;5.25;;;;;;;;;;5032900;28;20065;-91
2023/07/18 00:21:16;;;;;;;6.45;5.38;;;;;;;;;;5033165;28;20444;-92
2023/07/18 00:23:41;;;;;;;4.97;4.47;;;;;;;;;;5033817;28;20033;-92
2023/07/18 00:26:08;;;;;;;2.80;2.60;;;;;;;;;;5033029;28;20040;-92
2023/07/18 00:28:37;;;;;;;5.90;3.30;;;;;;;;;;5033765;28;20108;-92
2023/07/18 00:31:03;;;;;;;6.65;3.83;;;;;;;;;;5033743;28;20032;-90
2023/07/18 00:33:28;;;;;;;5.25;4.13;;;;;;;;;;5033410;28;20034;-91
2023/07/18 00:35:54;;;;;;;7.20;4.63;;;;;;;;;;5033208;28;20030;-92
2023/07/18 00:38:20;;;;;;;8.07;5.05;;;;;;;;;;5033201;28;20368;-91
2023/07/18 00:40:49;;;;;;;5.28;4.78;;;;;;;;;;5033485;28;20087;-91
2023/07/18 00:43:14;;;;;;;8.60;5.43;;;;;;;;;;5033067;28;20041;-92
2023/07/18 00:45:41;;;;;;;9.25;7.35;;;;;;;;;;5032905;28;20403;-94
2023/07/18 00:48:07;;;;;;;7.88;6.55;;;;;;;;;;5033216;28;20030;-90
2023/07/18 00:50:34;;;;;;;7.22;6.53;;;;;;;;;;5033218;28;20383;-91
2023/07/18 00:53:03;;;;;;;7.47;6.30;;;;;;;;;;5033169;28;20030;-90
2023/07/18 00:55:29;;;;;;;6.97;6.30;;;;;;;;;;5033334;28;20025;-90
2023/07/18 00:57:55;;;;;;;8.15;5.82;;;;;;;;;;5032892;28;20025;-90
2023/07/18 01:00:23;;;;;;;7.55;5.65;;;;;;;;;;5032806;28;20030;-90
2023/07/18 01:02:49;;;;;;;7.68;6.20;;;;;;;;;;5033028;28;20057;-92
2023/07/18 01:05:16;;;;;;;7.13;5.95;;;;;;;;;;5033019;28;20050;-92
2023/07/18 01:07:44;;;;;;;8.35;6.88;;;;;;;;;;5032589;28;20053;-92
2023/07/18 01:10:23;;;;;;;10.10;6.93;;;;;;;;;;5032906;28;20491;-92
2023/07/18 01:12:56;;;;;;;8.35;6.50;;;;;;;;;;5033002;28;20034;-91
2023/07/18 01:15:23;;;;;;;9.18;6.25;;;;;;;;;;5033071;28;20074;-92
2023/07/18 01:17:51;;;;;;;10.07;6.95;;;;;;;;;;5016715;28;20117;-91
2023/07/18 01:20:25;;;;;;;8.50;6.72;;;;;;;;;;5032940;28;20049;-91
2023/07/18 01:22:54;;;;;;;14.00;7.78;;;;;;;;;;5033311;28;20486;-91
2023/07/18 01:25:20;;;;;;;14.10;7.63;;;;;;;;;;5032952;28;20033;-91
2023/07/18 01:27:46;;;;;;;14.20;8.00;;;;;;;;;;5032692;28;20276;-91
2023/07/18 01:30:12;;;;;;;15.60;8.85;;;;;;;;;;5032270;28;20045;-92
2023/07/18 01:32:38;;;;;;;12.52;7.38;;;;;;;;;;5032609;28;20029;-90
2023/07/18 01:35:08;;;;;;;13.45;7.60;;;;;;;;;;5032558;28;20032;-92
2023/07/18 01:37:37;;;;;;;15.07;8.18;;;;;;;;;;5050388;28;20104;-90
2023/07/18 01:40:05;;;;;;;9.70;7.43;;;;;;;;;;5036542;28;20037;-92
2023/07/18 01:42:30;;;;;;;12.30;8.07;;;;;;;;;;5036441;28;20025;-91
2023/07/18 01:44:56;;;;;;;11.65;8.18;;;;;;;;;;5036234;28;20026;-91
2023/07/18 01:47:21;;;;;;;15.50;8.25;;;;;;;;;;5053121;28;20017;-91
2023/07/18 01:49:47;;;;;;;16.85;9.75;;;;;;;;;;5036554;28;20037;-91
2023/07/18 01:52:15;;;;;;;18.50;11.93;;;;;;;;;;5036107;28;20025;-92
2023/07/18 01:54:41;;;;;;;17.80;9.95;;;;;;;;;;5036220;28;20030;-90
2023/07/18 01:57:06;;;;;;;19.70;10.98;;;;;;;;;;5036191;28;20024;-91
2023/07/18 01:59:32;;;;;;;14.52;8.15;;;;;;;;;;5019668;28;20091;-92
2023/07/18 02:01:57;;;;;;;18.23;11.05;;;;;;;;;;5035846;28;20025;-92
2023/07/18 02:04:23;;;;;;;17.33;11.00;;;;;;;;;;5019301;28;20049;-92
2023/07/18 02:06:48;;;;;;;15.38;9.18;;;;;;;;;;5036251;28;20025;-92
2023/07/18 02:09:13;;;;;;;16.55;9.65;;;;;;;;;;5052109;28;20045;-92
2023/07/18 02:11:39;;;;;;;10.13;7.35;;;;;;;;;;5035141;28;20029;-91
2023/07/18 02:14:04;;;;;;;7.38;6.18;;;;;;;;;;5036056;28;20038;-92
2023/07/18 02:16:31;;;;;;;5.90;5.30;;;;;;;;;;5036266;28;20574;-93
2023/07/18 02:18:59;;;;;;;5.07;4.68;;;;;;;;;;5035651;28;20059;-91
2023/07/18 02:21:25;;;;;;;6.57;5.85;;;;;;;;;;5035990;28;20022;-91
2023/07/18 02:23:50;;;;;;;14.15;12.10;;;;;;;;;;5035316;28;20029;-92
2023/07/18 02:26:15;;;;;;;12.05;10.77;;;;;;;;;;5052407;28;20111;-91
2023/07/18 02:28:41;;;;;;;8.73;6.57;;;;;;;;;;5018860;28;20033;-92
2023/07/18 02:31:09;;;;;;;14.93;10.95;;;;;;;;;;5035113;28;20021;-91
2023/07/18 02:33:34;;;;;;;11.27;9.48;;;;;;;;;;5035578;28;20128;-92
2023/07/18 02:35:59;;;;;;;10.70;7.70;;;;;;;;;;5035614;28;20049;-93
2023/07/18 02:38:25;;;;;;;9.18;7.90;;;;;;;;;;5035079;28;20088;-91
2023/07/18 02:40:53;;;;;;;10.10;7.18;;;;;;;;;;5035640;28;20057;-91
2023/07/18 02:43:18;;;;;;;10.80;7.43;;;;;;;;;;5035322;28;20066;-90
2023/07/18 02:45:46;;;;;;;9.98;8.15;;;;;;;;;;5035468;28;20021;-91
2023/07/18 02:48:11;;;;;;;9.80;6.78;;;;;;;;;;5035287;28;20417;-91
2023/07/18 02:50:37;;;;;;;3.60;3.30;;;;;;;;;;5034571;28;20475;-91
2023/07/18 02:53:03;;;;;;;6.85;4.53;;;;;;;;;;5035549;28;20518;-95
2023/07/18 02:55:37;;;;;;;7.88;6.03;;;;;;;;;;5035214;28;20116;-96
2023/07/18 02:58:05;;;;;;;5.18;4.70;;;;;;;;;;5018594;28;20033;-95
2023/07/18 03:00:36;;;;;;;6.00;5.38;;;;;;;;;;5017627;28;20029;-95
2023/07/18 03:03:04;;;;;;;6.90;5.18;;;;;;;;;;5017896;28;20033;-94
2023/07/18 03:05:33;;;;;;;5.75;5.10;;;;;;;;;;5010067;28;20463;-94
2023/07/18 03:08:00;;;;;;;8.40;4.68;;;;;;;;;;5047951;28;20052;-95
2023/07/18 03:10:37;;;;;;;4.43;4.03;;;;;;;;;;5014964;28;20088;-95
2023/07/18 03:13:03;;;;;;;6.82;4.18;;;;;;;;;;5018658;28;20040;-95
2023/07/18 03:15:50;;;;;;;6.50;3.65;;;;;;;;;;5011278;28;20079;-96
2023/07/18 03:18:25;;;;;;;5.22;3.97;;;;;;;;;;5029436;28;20105;-95
2023/07/18 03:21:04;;;;;;;5.13;3.90;;;;;;;;;;5031160;28;20117;-96
2023/07/18 03:24:03;;;;;;;6.22;3.97;;;;;;;;;;5046994;28;20042;-96
2023/07/18 03:26:34;;;;;;;8.63;3.97;;;;;;;;;;5042919;28;20475;-96
2023/07/18 03:29:07;;;;;;;5.18;3.45;;;;;;;;;;5051311;28;20033;-96
2023/07/18 03:31:39;;;;;;;5.00;3.65;;;;;;;;;;5019284;28;20037;-96
2023/07/18 03:34:20;;;;;;;4.97;3.63;;;;;;;;;;5034492;28;20071;-95
2023/07/18 03:36:50;;;;;;;4.32;3.53;;;;;;;;;;5025903;28;20037;-96
2023/07/18 03:39:23;;;;;;;4.28;3.25;;;;;;;;;;5042225;28;20033;-95
2023/07/18 03:41:59;;;;;;;4.65;3.35;;;;;;;;;;5034212;28;20030;-95
2023/07/18 03:44:44;;;;;;;4.53;3.22;;;;;;;;;;5014594;28;20026;-96
2023/07/18 03:47:25;;;;;;;4.75;3.03;;;;;;;;;;5039477;28;20040;-95
2023/07/18 03:49:58;;;;;;;4.35;3.00;;;;;;;;;;5042437;28;20041;-96
2023/07/18 03:52:33;;;;;;;3.28;2.97;;;;;;;;;;5016772;28;20034;-95
2023/07/18 03:55:00;;;;;;;5.00;3.13;;;;;;;;;;5005021;28;20484;-95
2023/07/18 03:57:34;;;;;;;4.70;3.15;;;;;;;;;;5014591;28;20022;-96
2023/07/18 04:00:33;;;;;;;8.13;3.15;;;;;;;;;;5019508;28;20037;-94
2023/07/18 04:03:13;;;;;;;5.25;3.00;;;;;;;;;;5026461;28;20032;-94
2023/07/18 04:05:47;;;;;;;5.18;3.28;;;;;;;;;;5021196;28;20057;-94
2023/07/18 04:08:23;;;;;;;6.65;3.28;;;;;;;;;;5023937;28;20112;-95
2023/07/18 04:10:50;;;;;;;4.28;3.20;;;;;;;;;;5027379;28;20128;-94
2023/07/18 04:13:20;;;;;;;5.95;3.90;;;;;;;;;;5027860;28;20097;-94
2023/07/18 04:15:49;;;;;;;5.47;3.25;;;;;;;;;;5014571;28;20461;-93
2023/07/18 04:18:17;;;;;;;4.70;3.67;;;;;;;;;;5024005;28;20041;-95
2023/07/18 04:20:42;;;;;;;3.75;3.28;;;;;;;;;;5022688;28;20143;-95
2023/07/18 04:23:14;;;;;;;9.05;3.17;;;;;;;;;;5013066;28;20506;-94
2023/07/18 04:25:53;;;;;;;3.70;2.85;;;;;;;;;;5019133;28;20498;-95
2023/07/18 04:28:36;;;;;;;4.63;3.15;;;;;;;;;;5030998;28;20036;-95
2023/07/18 04:31:17;;;;;;;3.22;2.88;;;;;;;;;;5014634;28;20034;-95
2023/07/18 04:33:53;;;;;;;4.60;3.03;;;;;;;;;;5013910;28;20042;-94
2023/07/18 04:36:36;;;;;;;4.15;3.10;;;;;;;;;;5014200;28;20022;-93
2023/07/18 04:39:06;;;;;;;5.03;3.10;;;;;;;;;;4996830;28;20057;-95
2023/07/18 04:41:33;;;;;;;4.13;3.47;;;;;;;;;;5026418;28;20026;-94
2023/07/18 04:44:11;;;;;;;3.20;2.97;;;;;;;;;;5033139;28;20053;-95
2023/07/18 04:46:36;;;;;;;3.88;3.30;;;;;;;;;;5014008;28;20049;-95
2023/07/18 04:49:01;;;;;;;6.03;3.35;;;;;;;;;;4998039;28;20492;-95
2023/07/18 04:51:28;;;;;;;4.10;3.22;;;;;;;;;;5013719;28;20030;-92
2023/07/18 04:53:54;;;;;;;4.93;3.38;;;;;;;;;;5013975;28;20033;-95
2023/07/18 04:56:19;;;;;;;5.72;3.50;;;;;;;;;;4997386;28;20499;-94
2023/07/18 04:58:47;;;;;;;4.50;3.40;;;;;;;;;;5013392;28;20040;-93
2023/07/18 05:01:16;;;;;;;3.67;3.38;;;;;;;;;;5019625;28;20037;-94
2023/07/18 05:03:44;;;;;;;6.00;3.22;;;;;;;;;;5030940;28;20033;-93
2023/07/18 05:06:14;;;;;;;5.82;3.63;;;;;;;;;;5025181;28;20054;-94
2023/07/18 05:09:09;;;;;;;4.10;2.97;;;;;;;;;;5013209;28;20038;-96
2023/07/18 05:11:47;;;;;;;5.03;3.10;;;;;;;;;;5050461;23;20424;-62
2023/07/18 05:14:13;;;;;;;4.38;3.03;;;;;;;;;;5047212;28;20523;-62
2023/07/18 05:16:38;;;;;;;8.40;3.17;;;;;;;;;;5037459;28;20449;-56
2023/07/18 05:19:03;;;;;;;6.97;3.50;;;;;;;;;;5037508;28;20029;-58
2023/07/18 05:21:30;;;;;;;5.18;3.45;;;;;;;;;;5037210;28;20440;-64
2023/07/18 05:23:55;;;;;;;8.27;3.88;;;;;;;;;;5045057;28;20111;-63
2023/07/18 05:26:20;;;;;;;14.18;5.50;;;;;;;;;;5046516;28;20060;-60
2023/07/18 05:28:46;;;;;;;11.95;4.88;;;;;;;;;;5050862;28;20470;-61
2023/07/18 05:31:11;;;;;;;10.60;4.80;;;;;;;;;;5039916;28;20499;-55
2023/07/18 05:33:36;;;;;;;8.38;4.45;;;;;;;;;;5052231;28;20038;-54
2023/07/18 05:36:02;;;;;;;9.82;4.38;;;;;;;;;;5046619;28;20021;-54
2023/07/18 05:38:28;;;;;;;5.80;3.75;;;;;;;;;;5041951;28;20025;-54
2023/07/18 05:40:53;;;;;;;5.13;3.38;;;;;;;;;;5052006;28;20032;-54
2023/07/18 05:43:18;;;;;;;3.88;3.35;;;;;;;;;;5056872;28;20483;-54
2023/07/18 05:45:44;;;;;;;7.88;4.00;;;;;;;;;;5054204;28;20033;-55
2023/07/18 05:48:09;;;;;;;6.75;3.50;;;;;;;;;;5055618;28;20036;-54
2023/07/18 05:50:35;;;;;;;3.30;3.00;;;;;;;;;;5055135;28;20562;-54
2023/07/18 05:53:00;;;;;;;3.58;3.08;;;;;;;;;;5054872;28;20316;-54
2023/07/18 05:55:27;;;;;;;5.65;3.35;;;;;;;;;;5054893;28;20033;-54
2023/07/18 05:57:53;;;;;;;5.45;3.42;;;;;;;;;;5054647;28;20336;-55
2023/07/18 06:00:18;;;;;;;4.32;2.78;;;;;;;;;;5055242;28;20032;-54
2023/07/18 06:02:43;;;;;;;4.05;3.05;;;;;;;;;;5054781;28;20428;-54
2023/07/18 06:05:09;;;;;;;5.43;3.00;;;;;;;;;;5054365;28;20029;-54
2023/07/18 06:07:35;;;;;;;7.30;2.95;;;;;;;;;;5053143;28;20037;-54
2023/07/18 06:10:01;;;;;;;2.55;2.35;;;;;;;;;;5054184;28;20029;-54
2023/07/18 06:12:27;;;;;;;7.13;3.15;;;;;;;;;;5036331;28;20044;-54
2023/07/18 06:14:53;;;;;;;4.55;3.13;;;;;;;;;;5034281;28;20033;-54
2023/07/18 06:17:18;;;;;;;2.70;2.50;;;;;;;;;;5034821;28;20097;-54
2023/07/18 06:19:46;;;;;;;5.93;2.90;;;;;;;;;;5036481;28;20033;-54
2023/07/18 06:22:14;;;;;;;5.72;3.10;;;;;;;;;;5036700;28;20469;-54
2023/07/18 06:24:41;;;;;;;4.35;2.75;;;;;;;;;;5035426;28;20071;-54
2023/07/18 06:27:06;;;;;;;3.72;2.40;;;;;;;;;;5036339;28;20037;-54
2023/07/18 06:29:32;;;;;;;7.72;2.83;;;;;;;;;;5035950;28;20485;-54
2023/07/18 06:31:57;;;;;;;5.90;2.72;;;;;;;;;;5036239;28;20034;-54
2023/07/18 06:34:23;;;;;;;3.00;2.58;;;;;;;;;;5036226;28;20033;-54
2023/07/18 06:36:48;;;;;;;6.07;2.03;;;;;;;;;;5036149;28;20141;-55
2023/07/18 06:39:16;;;;;;;3.45;2.00;;;;;;;;;;5036106;28;20037;-54
2023/07/18 06:41:41;;;;;;;2.35;2.15;;;;;;;;;;5035790;28;20025;-54
2023/07/18 06:44:09;;;;;;;4.85;2.10;;;;;;;;;;5018021;28;20480;-54
2023/07/18 06:46:34;;;;;;;2.80;1.98;;;;;;;;;;5035696;28;20053;-54
2023/07/18 06:48:59;;;;;;;2.35;2.10;;;;;;;;;;5035575;28;20052;-54
2023/07/18 06:51:24;;;;;;;3.85;2.80;;;;;;;;;;5018221;28;20025;-55
2023/07/18 06:53:51;;;;;;;4.90;2.70;;;;;;;;;;5018130;28;20075;-54
2023/07/18 06:56:17;;;;;;;3.28;2.80;;;;;;;;;;5035675;28;20033;-54
2023/07/18 06:58:42;;;;;;;5.57;2.65;;;;;;;;;;5035430;28;20087;-54
2023/07/18 07:01:07;;;;;;;2.65;2.42;;;;;;;;;;5035419;28;20144;-55
2023/07/18 07:03:33;;;;;;;3.50;2.10;;;;;;;;;;5035371;28;20053;-54
2023/07/18 07:05:58;;;;;;;3.47;2.15;;;;;;;;;;5035308;28;20446;-54
2023/07/18 07:08:24;;;;;;;3.67;2.20;;;;;;;;;;5018348;28;20127;-54
2023/07/18 07:10:52;;;;;;;3.15;1.80;;;;;;;;;;5034936;28;20049;-54
2023/07/18 07:13:18;;;;;;;2.53;2.33;;;;;;;;;;5035187;28;20041;-54
2023/07/18 07:15:43;;;;;;;2.40;2.20;;;;;;;;;;5035397;28;20107;-54
2023/07/18 07:18:08;;;;;;;3.50;2.00;;;;;;;;;;5035073;28;20164;-54
2023/07/18 07:20:34;;;;;;;3.30;2.30;;;;;;;;;;5035340;28;20029;-54
2023/07/18 07:23:00;;;;;;;2.13;2.03;;;;;;;;;;5035002;28;20061;-54
2023/07/18 07:25:31;;;;;;;3.92;1.90;;;;;;;;;;5034929;28;20029;-54
2023/07/18 07:27:57;;;;;;;3.45;2.03;;;;;;;;;;5017241;28;20040;-54
2023/07/18 07:30:22;;;;;;;2.25;2.05;;;;;;;;;;5034763;28;20036;-54
2023/07/18 07:32:51;;;;;;;5.82;1.83;;;;;;;;;;5017044;28;20485;-54
2023/07/18 07:35:22;;;;;;;2.30;1.98;;;;;;;;;;5033792;28;20040;-54
2023/07/18 07:37:48;;;;;;;4.53;4.13;;;;;;;;;;5017633;28;20104;-54
2023/07/18 07:40:14;;;;;;;2.72;2.25;;;;;;;;;;5016987;28;20547;-54
2023/07/18 07:42:39;;;;;;;2.53;2.15;;;;;;;;;;5034603;28;20033;-54
2023/07/18 07:45:05;;;;;;;3.85;2.05;;;;;;;;;;5034513;28;20037;-54
2023/07/18 07:47:31;;;;;;;5.03;2.40;;;;;;;;;;5035045;28;20059;-55
2023/07/18 07:49:57;;;;;;;2.97;2.45;;;;;;;;;;5034380;28;20094;-54
2023/07/18 07:52:22;;;;;;;3.67;2.33;;;;;;;;;;5034671;28;20454;-54
2023/07/18 07:54:48;;;;;;;2.50;2.30;;;;;;;;;;5034372;28;20029;-54
2023/07/18 07:57:14;;;;;;;2.10;1.98;;;;;;;;;;5034356;28;20022;-54
2023/07/18 07:59:39;;;;;;;2.05;1.70;;;;;;;;;;5034300;28;20470;-54
2023/07/18 08:02:05;;;;;;;5.00;2.05;;;;;;;;;;5016858;28;20037;-54
2023/07/18 08:04:30;;;;;;;2.15;1.95;;;;;;;;;;5034236;28;20036;-54
2023/07/18 08:06:55;;;;;;;3.08;2.05;;;;;;;;;;5034209;28;20036;-54
2023/07/18 08:09:21;;;;;;;1.83;1.73;;;;;;;;;;5034094;28;20465;-54
2023/07/18 08:11:47;;;;;;;2.63;1.90;;;;;;;;;;5033923;28;20037;-54
2023/07/18 08:14:13;;;;;;;1.45;1.35;;;;;;;;;;5034362;28;20025;-54
2023/07/18 08:16:38;;;;;;;2.88;2.10;;;;;;;;;;5033957;28;20033;-54
2023/07/18 08:19:03;;;;;;;3.92;1.90;;;;;;;;;;5034554;28;20037;-55
2023/07/18 08:21:29;;;;;;;2.70;1.95;;;;;;;;;;5016617;28;20108;-54
2023/07/18 08:23:54;;;;;;;4.28;1.73;;;;;;;;;;5033907;28;20033;-54
2023/07/18 08:26:20;;;;;;;1.90;1.77;;;;;;;;;;5033857;28;20492;-54
2023/07/18 08:28:45;;;;;;;2.25;1.65;;;;;;;;;;5034046;28;20067;-54
2023/07/18 08:31:10;;;;;;;4.28;2.10;;;;;;;;;;5034107;28;20013;-54
2023/07/18 08:33:36;;;;;;;4.43;2.08;;;;;;;;;;5033739;28;20491;-54
2023/07/18 08:36:01;;;;;;;3.47;1.92;;;;;;;;;;5016430;28;20040;-54
2023/07/18 08:38:26;;;;;;;2.90;1.70;;;;;;;;;;5034465;28;20116;-54
2023/07/18 08:40:52;;;;;;;2.55;1.77;;;;;;;;;;5033932;28;20033;-54
2023/07/18 08:43:18;;;;;;;1.95;1.73;;;;;;;;;;5033928;28;20128;-54
2023/07/18 08:45:43;;;;;;;2.60;1.95;;;;;;;;;;5034192;28;20104;-55
2023/07/18 08:48:09;;;;;;;2.00;1.80;;;;;;;;;;5033553;28;20421;-54
2023/07/18 08:50:35;;;;;;;2.03;1.55;;;;;;;;;;5015812;28;20029;-54
2023/07/18 08:53:04;;;;;;;3.03;1.67;;;;;;;;;;5033533;28;20052;-54
2023/07/18 08:55:30;;;;;;;2.20;1.80;;;;;;;;;;5033805;28;20037;-54
2023/07/18 08:57:55;;;;;;;1.90;1.45;;;;;;;;;;5033776;28;20120;-54
2023/07/18 09:00:21;;;;;;;3.45;1.67;;;;;;;;;;5033734;28;20030;-54
2023/07/18 09:02:48;;;;;;;2.25;1.60;;;;;;;;;;5033712;28;20452;-54
2023/07/18 09:05:32;;;;;;;1.45;1.33;;;;;;;;;;5033715;28;20100;-54
2023/07/18 09:07:58;;;;;;;1.77;1.50;;;;;;;;;;5033692;28;20029;-54
2023/07/18 09:10:23;;;;;;;2.25;1.40;;;;;;;;;;5033418;28;20040;-55
2023/07/18 09:12:50;;;;;;;2.03;1.92;;;;;;;;;;5016065;28;20044;-54
2023/07/18 09:15:19;;;;;;;1.65;1.55;;;;;;;;;;5033292;28;20044;-54
2023/07/18 09:17:49;;;;;;;2.13;1.70;;;;;;;;;;5033578;28;20041;-54
2023/07/18 09:20:17;;;;;;;2.03;1.50;;;;;;;;;;5033588;28;20040;-54
2023/07/18 09:22:42;;;;;;;2.67;1.60;;;;;;;;;;5033590;28;20033;-54
2023/07/18 09:25:08;;;;;;;4.93;1.70;;;;;;;;;;5033258;28;20377;-54
2023/07/18 09:27:35;;;;;;;3.60;1.35;;;;;;;;;;5033261;28;20484;-54
2023/07/18 09:30:00;;;;;;;1.80;1.45;;;;;;;;;;5033186;28;20497;-54
2023/07/18 09:32:25;;;;;;;1.73;1.63;;;;;;;;;;5033175;28;20037;-54
2023/07/18 09:34:52;;;;;;;1.80;1.50;;;;;;;;;;5033164;28;20036;-54
2023/07/18 09:37:18;;;;;;;1.65;1.55;;;;;;;;;;5033412;28;20022;-54
2023/07/18 09:39:43;;;;;;;1.65;1.30;;;;;;;;;;5033382;28;20091;-54
2023/07/18 09:42:10;;;;;;;1.70;1.60;;;;;;;;;;5033091;28;20033;-59
2023/07/18 09:44:35;;;;;;;3.85;1.50;;;;;;;;;;5033616;28;20125;-54
2023/07/18 09:47:00;;;;;;;3.08;1.60;;;;;;;;;;5066821;22;20073;-59
2023/07/18 09:49:26;;;;;;;2.05;1.30;;;;;;;;;;5060759;23;20511;-59
2023/07/18 09:52:01;;;;;;;1.60;1.50;;;;;;;;;;5046142;23;20054;-59
2023/07/18 09:54:41;;;;;;;1.30;1.10;;;;;;;;;;5038501;23;20060;-59
2023/07/18 09:57:09;;;;;;;1.63;1.40;;;;;;;;;;5057695;23;20081;-54
2023/07/18 10:00:09;;;;;;;1.63;1.30;;;;;;;;;;5055115;23;20057;-54
2023/07/18 10:02:35;;;;;;;1.70;1.60;;;;;;;;;;5069266;23;20136;-59
2023/07/18 10:05:22;;;;;;;2.83;1.42;;;;;;;;;;5044526;23;20394;-59
2023/07/18 10:08:02;;;;;;;2.13;1.50;;;;;;;;;;5056836;22;20058;-59
2023/07/18 10:10:27;;;;;;;1.40;1.30;;;;;;;;;;5026228;22;1144481;-59
2023/07/18 10:12:54;;;;;;;1.38;1.27;;;;;;;;;;5059644;22;20049;-55
2023/07/18 10:15:20;;;;;;;3.65;1.80;;;;;;;;;;5036233;22;20062;-60
2023/07/18 10:17:47;;;;;;;1.92;1.20;;;;;;;;;;5016781;28;20430;-60
2023/07/18 10:20:19;;;;;;;7.95;6.95;;;;;;;;;;4998994;28;20476;-60
2023/07/18 10:22:46;;;;;;;1.60;1.50;;;;;;;;;;5016369;28;20029;-60
2023/07/18 10:25:11;;;;;;;1.58;1.48;;;;;;;;;;5016361;28;20528;-60
2023/07/18 10:27:44;;;;;;;1.83;1.35;;;;;;;;;;5016319;28;20030;-60
2023/07/18 10:30:11;;;;;;;1.60;1.50;;;;;;;;;;5016179;28;20033;-60
2023/07/18 10:32:39;;;;;;;2.13;1.60;;;;;;;;;;5016437;28;20060;-60
2023/07/18 10:35:06;;;;;;;1.58;1.48;;;;;;;;;;5016434;28;20037;-60
2023/07/18 10:37:32;;;;;;;2.88;1.63;;;;;;;;;;5016392;28;20044;-60
2023/07/18 10:39:57;;;;;;;1.30;1.20;;;;;;;;;;5016342;28;20109;-60
2023/07/18 10:42:25;;;;;;;2.30;1.50;;;;;;;;;;5016290;28;20033;-60
2023/07/18 10:44:58;;;;;;;2.80;1.60;;;;;;;;;;5016265;28;20030;-60
2023/07/18 10:47:24;;;;;;;3.70;1.73;;;;;;;;;;4998737;28;20030;-60
2023/07/18 10:49:50;;;;;;;1.58;1.48;;;;;;;;;;5016101;28;20084;-60
2023/07/18 10:52:16;;;;;;;1.52;1.40;;;;;;;;;;5015835;28;20038;-60
2023/07/18 10:54:43;;;;;;;1.65;1.40;;;;;;;;;;5016052;28;20033;-60
2023/07/18 10:57:09;;;;;;;1.67;1.27;;;;;;;;;;5016050;28;20018;-60
2023/07/18 10:59:36;;;;;;;1.50;1.40;;;;;;;;;;5015722;28;20034;-60
2023/07/18 11:02:01;;;;;;;2.35;1.33;;;;;;;;;;5015989;28;20109;-60
2023/07/18 11:04:28;;;;;;;1.80;1.48;;;;;;;;;;5015608;28;20389;-60
2023/07/18 11:06:54;;;;;;;1.20;1.10;;;;;;;;;;5015835;28;20452;-60
2023/07/18 11:09:19;;;;;;;1.48;1.38;;;;;;;;;;5015565;28;20072;-60
2023/07/18 11:11:44;;;;;;;1.50;1.40;;;;;;;;;;5015755;28;20400;-60
2023/07/18 11:14:10;;;;;;;1.95;1.60;;;;;;;;;;5015732;28;20046;-60
2023/07/18 11:16:36;;;;;;;1.48;1.38;;;;;;;;;;5015383;28;20462;-60
2023/07/18 11:19:04;;;;;;;1.40;1.30;;;;;;;;;;5015623;28;20033;-60
2023/07/18 11:21:30;;;;;;;1.38;1.30;;;;;;;;;;5015570;28;20430;-60
2023/07/18 11:23:55;;;;;;;2.38;1.42;;;;;;;;;;5015485;28;20110;-60
2023/07/18 11:26:21;;;;;;;1.30;1.20;;;;;;;;;;5015468;28;20030;-60
2023/07/18 11:28:51;;;;;;;1.38;1.27;;;;;;;;;;5015453;28;20068;-60
2023/07/18 11:31:19;;;;;;;1.30;1.20;;;;;;;;;;5015420;28;20137;-60
2023/07/18 11:33:53;;;;;;;2.05;1.20;;;;;;;;;;5015316;28;20026;-60
2023/07/18 11:36:18;;;;;;;1.52;1.42;;;;;;;;;;5015276;28;20037;-60
2023/07/18 11:38:47;;;;;;;1.48;1.38;;;;;;;;;;5015253;28;20034;-60
2023/07/18 11:41:34;;;;;;;2.17;1.40;;;;;;;;;;5014885;28;20037;-60
2023/07/18 11:44:03;;;;;;;2.35;1.50;;;;;;;;;;5015183;28;20037;-60
2023/07/18 11:46:39;;;;;;;1.48;1.38;;;;;;;;;;5015131;28;20026;-60
2023/07/18 11:49:05;;;;;;;1.55;1.45;;;;;;;;;;5014995;28;20045;-60
2023/07/18 11:51:31;;;;;;;3.55;1.27;;;;;;;;;;5014773;28;20014;-60
2023/07/18 11:53:56;;;;;;;2.22;1.52;;;;;;;;;;5014767;28;20029;-60
2023/07/18 11:56:22;;;;;;;1.40;1.30;;;;;;;;;;5014676;28;20370;-60
2023/07/18 11:58:48;;;;;;;1.42;1.20;;;;;;;;;;5014955;28;20037;-60
2023/07/18 12:01:13;;;;;;;3.00;1.38;;;;;;;;;;5014888;28;20418;-60
2023/07/18 12:03:39;;;;;;;2.30;1.30;;;;;;;;;;5014587;28;20111;-60
2023/07/18 12:06:04;;;;;;;1.40;1.30;;;;;;;;;;5014529;28;20056;-60
2023/07/18 12:08:29;;;;;;;2.05;1.40;;;;;;;;;;5014481;28;20034;-60
2023/07/18 12:10:55;;;;;;;1.45;1.20;;;;;;;;;;4981750;28;20350;-60
2023/07/18 12:13:20;;;;;;;3.38;1.42;;;;;;;;;;5014947;28;20034;-60
2023/07/18 12:15:46;;;;;;;2.20;1.55;;;;;;;;;;5014261;28;20038;-60
2023/07/18 12:18:12;;;;;;;4.78;1.70;;;;;;;;;;5014311;28;20021;-60
2023/07/18 12:20:37;;;;;;;1.35;1.25;;;;;;;;;;5030592;28;20480;-60
2023/07/18 12:23:02;;;;;;;1.73;1.40;;;;;;;;;;5013660;28;20029;-60
2023/07/18 12:25:31;;;;;;;1.50;1.40;;;;;;;;;;5014758;28;20029;-60
2023/07/18 12:27:57;;;;;;;1.42;1.33;;;;;;;;;;5014422;28;20164;-60
2023/07/18 12:30:22;;;;;;;1.83;1.60;;;;;;;;;;5014306;28;20121;-60
2023/07/18 12:32:48;;;;;;;1.85;1.60;;;;;;;;;;5014129;28;20021;-60
2023/07/18 12:35:14;;;;;;;1.80;1.60;;;;;;;;;;5014306;28;20033;-60
2023/07/18 12:37:40;;;;;;;2.80;1.92;;;;;;;;;;5014318;28;20061;-60
2023/07/18 12:40:06;;;;;;;1.52;1.40;;;;;;;;;;5014567;28;20049;-60
2023/07/18 12:42:31;;;;;;;1.58;1.48;;;;;;;;;;5014265;28;20127;-60
2023/07/18 12:44:56;;;;;;;1.40;1.30;;;;;;;;;;4997021;28;20033;-60
2023/07/18 12:47:22;;;;;;;2.47;1.50;;;;;;;;;;5014186;28;20046;-60
2023/07/18 12:49:47;;;;;;;2.92;1.40;;;;;;;;;;5014113;28;20026;-60
2023/07/18 12:52:12;;;;;;;1.80;1.70;;;;;;;;;;5014155;28;20355;-60
2023/07/18 12:54:38;;;;;;;3.45;1.30;;;;;;;;;;5013854;28;20018;-60
2023/07/18 12:57:05;;;;;;;1.58;1.48;;;;;;;;;;4996545;28;20061;-60
2023/07/18 12:59:30;;;;;;;2.10;1.38;;;;;;;;;;5014078;28;20032;-60
2023/07/18 13:01:56;;;;;;;1.65;1.50;;;;;;;;;;5013721;28;20117;-61
2023/07/18 13:04:23;;;;;;;3.08;1.50;;;;;;;;;;4996576;28;20125;-60
2023/07/18 13:06:48;;;;;;;1.77;1.40;;;;;;;;;;5014008;28;20034;-60
2023/07/18 13:09:14;;;;;;;1.23;1.13;;;;;;;;;;5013583;28;20481;-60
2023/07/18 13:11:39;;;;;;;1.48;1.38;;;;;;;;;;5013266;28;20030;-60
2023/07/18 13:14:04;;;;;;;1.67;1.40;;;;;;;;;;5013473;28;20018;-62
2023/07/18 13:16:30;;;;;;;1.10;1.00;;;;;;;;;;5003964;28;20480;-61
2023/07/18 13:18:55;;;;;;;1.88;1.20;;;;;;;;;;4984043;28;20072;-61
2023/07/18 13:21:20;;;;;;;2.58;1.27;;;;;;;;;;5014687;28;20026;-60
2023/07/18 13:23:46;;;;;;;4.13;1.60;;;;;;;;;;4993967;28;20118;-60
2023/07/18 13:26:13;;;;;;;1.50;1.40;;;;;;;;;;4978195;28;20030;-61
2023/07/18 13:28:42;;;;;;;1.50;1.40;;;;;;;;;;5002444;28;20452;-61
2023/07/18 13:31:07;;;;;;;1.50;1.25;;;;;;;;;;5017507;28;20045;-61
2023/07/18 13:33:33;;;;;;;2.42;1.13;;;;;;;;;;5004599;28;20477;-60
2023/07/18 13:35:58;;;;;;;1.35;1.08;;;;;;;;;;5006501;28;20024;-60
2023/07/18 13:38:24;;;;;;;1.20;1.10;;;;;;;;;;5007996;28;20113;-60
2023/07/18 13:40:49;;;;;;;1.38;1.27;;;;;;;;;;5007231;28;20030;-60
2023/07/18 13:43:14;;;;;;;1.30;1.20;;;;;;;;;;4983068;28;20070;-59
2023/07/18 13:45:40;;;;;;;2.38;1.38;;;;;;;;;;5015365;28;20041;-55
2023/07/18 13:48:07;;;;;;;1.48;1.17;;;;;;;;;;4979635;28;20061;-55
2023/07/18 13:50:32;;;;;;;1.50;1.40;;;;;;;;;;5012294;28;20034;-56
2023/07/18 13:52:58;;;;;;;2.08;1.13;;;;;;;;;;4997446;28;20489;-54
2023/07/18 13:55:24;;;;;;;1.95;1.13;;;;;;;;;;4997202;28;20033;-55
2023/07/18 13:57:49;;;;;;;1.55;1.38;;;;;;;;;;4997467;28;20030;-55
2023/07/18 14:00:14;;;;;;;2.83;1.40;;;;;;;;;;4997365;28;20469;-55
2023/07/18 14:02:42;;;;;;;1.35;1.20;;;;;;;;;;5012725;28;20053;-55
2023/07/18 14:05:07;;;;;;;1.15;1.00;;;;;;;;;;5013883;28;20057;-55
2023/07/18 14:07:33;;;;;;;1.58;1.27;;;;;;;;;;5004279;28;20093;-58
2023/07/18 14:09:59;;;;;;;1.20;1.15;;;;;;;;;;4997332;28;20466;-59
2023/07/18 14:12:24;;;;;;;1.50;1.40;;;;;;;;;;4986750;28;20053;-58
2023/07/18 14:14:50;;;;;;;2.00;1.38;;;;;;;;;;5016592;28;20038;-59
2023/07/18 14:17:16;;;;;;;1.55;1.23;;;;;;;;;;4999612;28;20064;-59
2023/07/18 14:19:41;;;;;;;1.35;1.25;;;;;;;;;;5015850;28;20133;-59
2023/07/18 14:22:07;;;;;;;2.20;1.15;;;;;;;;;;5016492;28;20540;-59
2023/07/18 14:24:32;;;;;;;1.50;1.40;;;;;;;;;;5016822;28;20339;-58
2023/07/18 14:26:57;;;;;;;1.45;1.35;;;;;;;;;;5016497;28;20117;-58
2023/07/18 14:29:23;;;;;;;3.70;2.13;;;;;;;;;;4992581;28;20057;-58
2023/07/18 14:31:48;;;;;;;1.88;1.40;;;;;;;;;;5016590;28;20381;-60
2023/07/18 14:34:14;;;;;;;1.48;1.38;;;;;;;;;;5015808;28;20036;-60
2023/07/18 14:36:39;;;;;;;4.55;1.38;;;;;;;;;;4999300;28;20026;-59
2023/07/18 14:39:05;;;;;;;1.45;1.35;;;;;;;;;;4995864;28;20465;-60
2023/07/18 14:41:30;;;;;;;1.75;1.55;;;;;;;;;;4995244;28;20026;-61
2023/07/18 14:43:55;;;;;;;1.45;1.38;;;;;;;;;;4994699;28;20484;-55